createdAt,value
2023-01-29T00:00:00.306Z,2.13
2023-01-29T00:02:27.946Z,2.00
2023-01-29T00:04:59.039Z,2.20
2023-01-29T00:07:26.927Z,2.02
2023-01-29T00:09:54.510Z,1.66
2023-01-29T00:12:22.704Z,1.85
2023-01-29T00:14:50.557Z,1.99
2023-01-29T00:17:18.279Z,1.56
2023-01-29T00:19:47.348Z,1.44
2023-01-29T00:22:15.047Z,1.56
2023-01-29T00:24:44.418Z,1.84
2023-01-29T00:27:12.305Z,2.02
2023-01-29T00:29:39.988Z,1.68
2023-01-29T00:32:07.791Z,1.40
2023-01-29T00:34:36.053Z,1.64
2023-01-29T00:37:09.108Z,1.65
2023-01-29T00:39:47.714Z,1.45
2023-01-29T00:42:34.179Z,1.60
2023-01-29T00:45:02.337Z,1.97
2023-01-29T00:47:36.597Z,1.96
2023-01-29T00:50:11.235Z,1.45
2023-01-29T00:52:41.176Z,1.79
2023-01-29T00:55:11.017Z,1.49
2023-01-29T00:57:38.966Z,1.73
2023-01-29T01:00:10.947Z,1.96
2023-01-29T01:02:58.205Z,1.65
2023-01-29T01:05:27.763Z,1.90
2023-01-29T01:07:58.360Z,2.02
2023-01-29T01:10:32.702Z,1.68
2023-01-29T01:13:03.753Z,1.48
2023-01-29T01:15:36.971Z,1.80
2023-01-29T01:18:05.439Z,2.01
2023-01-29T01:20:35.468Z,1.85
2023-01-29T01:23:03.595Z,2.12
2023-01-29T01:25:31.715Z,1.73
2023-01-29T01:28:36.708Z,1.72
2023-01-29T01:31:11.640Z,1.64
2023-01-29T01:33:40.141Z,1.68
2023-01-29T01:36:11.309Z,1.31
2023-01-29T01:38:45.309Z,1.15
2023-01-29T01:41:16.811Z,1.12
2023-01-29T01:43:48.851Z,1.46
2023-01-29T01:46:17.674Z,0.78
2023-01-29T01:48:49.487Z,1.36
2023-01-29T01:51:18.385Z,1.44
2023-01-29T01:53:57.822Z,1.32
2023-01-29T01:56:38.337Z,1.39
2023-01-29T01:59:09.812Z,1.36
2023-01-29T02:01:42.800Z,1.67
2023-01-29T02:04:36.726Z,1.50
2023-01-29T02:07:25.564Z,1.60
2023-01-29T02:09:54.837Z,1.90
2023-01-29T02:12:23.771Z,1.69
2023-01-29T02:14:51.671Z,1.61
2023-01-29T02:17:20.650Z,1.81
2023-01-29T02:20:13.236Z,1.94
2023-01-29T02:23:06.006Z,1.74
2023-01-29T02:25:56.909Z,1.70
2023-01-29T02:28:42.438Z,1.74
2023-01-29T02:31:13.232Z,1.05
2023-01-29T02:33:41.200Z,0.89
2023-01-29T02:36:18.581Z,1.64
2023-01-29T02:39:33.009Z,1.15
2023-01-29T02:42:20.826Z,1.43
2023-01-29T02:44:56.921Z,1.15
2023-01-29T02:47:33.282Z,1.42
2023-01-29T02:50:34.197Z,1.27
2023-01-29T02:53:13.722Z,1.15
2023-01-29T02:55:59.608Z,1.36
2023-01-29T02:58:43.153Z,1.36
2023-01-29T03:01:20.055Z,1.15
2023-01-29T03:03:56.090Z,1.32
2023-01-29T03:06:32.916Z,1.27
2023-01-29T03:09:05.573Z,1.35
2023-01-29T03:11:47.277Z,1.93
2023-01-29T03:14:19.942Z,1.85
2023-01-29T03:16:51.917Z,1.89
2023-01-29T03:19:28.548Z,1.75
2023-01-29T03:22:01.021Z,1.68
2023-01-29T03:24:56.381Z,1.53
2023-01-29T03:27:46.929Z,1.78
2023-01-29T03:30:37.579Z,1.87
2023-01-29T03:33:10.235Z,1.64
2023-01-29T03:35:44.668Z,1.66
2023-01-29T03:38:13.340Z,1.05
2023-01-29T03:40:52.516Z,1.50
2023-01-29T03:43:56.280Z,1.26
2023-01-29T03:46:32.352Z,1.64
2023-01-29T03:49:23.797Z,1.40
2023-01-29T03:51:51.711Z,1.45
2023-01-29T03:54:48.893Z,1.73
2023-01-29T03:57:41.281Z,1.76
2023-01-29T04:00:21.225Z,1.64
2023-01-29T04:02:53.835Z,1.67
2023-01-29T04:05:25.521Z,1.79
2023-01-29T04:08:03.071Z,1.03
2023-01-29T04:10:36.130Z,1.22
2023-01-29T04:13:07.669Z,1.58
2023-01-29T04:15:45.277Z,1.25
2023-01-29T04:18:13.597Z,1.13
2023-01-29T04:20:43.310Z,1.57
2023-01-29T04:23:22.962Z,2.02
2023-01-29T04:26:18.499Z,1.68
2023-01-29T04:28:55.943Z,1.34
2023-01-29T04:31:32.864Z,1.35
2023-01-29T04:34:16.303Z,1.08
2023-01-29T04:37:07.722Z,1.63
2023-01-29T04:39:54.424Z,1.69
2023-01-29T04:42:40.979Z,1.73
2023-01-29T04:45:23.815Z,1.64
2023-01-29T04:48:09.095Z,1.36
2023-01-29T04:50:46.463Z,1.57
2023-01-29T04:53:44.402Z,1.62
2023-01-29T04:56:26.693Z,1.71
2023-01-29T04:59:09.412Z,1.52
2023-01-29T05:01:38.688Z,1.25
2023-01-29T05:04:12.109Z,1.55
2023-01-29T05:06:40.395Z,2.05
2023-01-29T05:09:09.934Z,1.84
2023-01-29T05:11:37.789Z,1.95
2023-01-29T05:14:10.131Z,1.86
2023-01-29T05:16:46.147Z,1.42
2023-01-29T05:19:16.055Z,1.73
2023-01-29T05:21:49.393Z,1.99
2023-01-29T05:24:20.185Z,2.05
2023-01-29T05:27:08.846Z,2.06
2023-01-29T05:29:36.797Z,2.02
2023-01-29T05:32:04.837Z,1.67
2023-01-29T05:34:32.406Z,2.04
2023-01-29T05:37:00.026Z,2.03
2023-01-29T05:39:28.351Z,1.93
2023-01-29T05:41:56.381Z,2.10
2023-01-29T05:44:23.968Z,1.99
2023-01-29T05:46:52.003Z,1.84
2023-01-29T05:49:20.698Z,2.00
2023-01-29T05:51:48.313Z,2.41
2023-01-29T05:54:16.365Z,2.48
2023-01-29T05:56:44.076Z,2.32
2023-01-29T05:59:11.710Z,2.60
2023-01-29T06:01:39.740Z,2.17
2023-01-29T06:04:07.735Z,2.46
2023-01-29T06:06:35.338Z,2.26
2023-01-29T06:09:03.035Z,2.25
2023-01-29T06:11:31.152Z,2.72
2023-01-29T06:13:58.728Z,2.37
2023-01-29T06:16:26.476Z,2.73
2023-01-29T06:18:54.462Z,2.55
2023-01-29T06:21:22.477Z,2.50
2023-01-29T06:23:52.845Z,2.50
2023-01-29T06:26:21.034Z,2.49
2023-01-29T06:28:49.936Z,2.87
2023-01-29T06:31:37.697Z,2.65
2023-01-29T06:34:09.839Z,2.22
2023-01-29T06:36:37.589Z,2.00
2023-01-29T06:39:05.294Z,2.34
2023-01-29T06:41:33.595Z,2.25
2023-01-29T06:44:01.434Z,2.51
2023-01-29T06:46:29.081Z,2.60
2023-01-29T06:49:00.926Z,2.88
2023-01-29T06:51:28.526Z,3.10
2023-01-29T06:53:56.522Z,2.82
2023-01-29T06:56:25.020Z,2.99
2023-01-29T06:58:52.685Z,2.72
2023-01-29T07:01:34.656Z,2.60
2023-01-29T07:04:03.914Z,2.80
2023-01-29T07:06:32.261Z,2.90
2023-01-29T07:08:59.988Z,3.08
2023-01-29T07:11:27.856Z,3.32
2023-01-29T07:13:55.624Z,3.37
2023-01-29T07:16:23.573Z,2.93
2023-01-29T07:18:51.824Z,3.24
2023-01-29T07:21:19.505Z,3.08
2023-01-29T07:23:47.232Z,2.89
2023-01-29T07:26:15.477Z,2.80
2023-01-29T07:28:43.182Z,2.81
2023-01-29T07:31:13.663Z,3.20
2023-01-29T07:33:44.399Z,3.00
2023-01-29T07:36:13.374Z,3.29
2023-01-29T07:38:41.465Z,2.74
2023-01-29T07:41:11.446Z,2.69
2023-01-29T07:43:39.110Z,2.99
2023-01-29T07:46:07.271Z,2.38
2023-01-29T07:48:35.263Z,2.15
2023-01-29T07:51:03.300Z,2.35
2023-01-29T07:53:31.327Z,2.34
2023-01-29T07:55:58.979Z,1.74
2023-01-29T07:58:26.645Z,2.37
2023-01-29T08:00:54.632Z,2.23
2023-01-29T08:03:22.681Z,2.03
2023-01-29T08:05:50.383Z,2.07
2023-01-29T08:08:19.397Z,2.12
2023-01-29T08:10:47.745Z,2.36
2023-01-29T08:13:15.439Z,2.24
2023-01-29T08:15:45.409Z,1.81
2023-01-29T08:18:14.458Z,1.98
2023-01-29T08:20:42.641Z,2.37
2023-01-29T08:23:16.547Z,2.47
2023-01-29T08:25:44.590Z,2.74
2023-01-29T08:28:12.585Z,2.79
2023-01-29T08:30:40.294Z,2.73
2023-01-29T08:33:08.408Z,2.52
2023-01-29T08:35:36.457Z,2.51
2023-01-29T08:38:05.358Z,2.21
2023-01-29T08:40:37.904Z,2.74
2023-01-29T08:43:09.129Z,2.44
2023-01-29T08:45:40.666Z,2.11
2023-01-29T08:48:09.174Z,2.33
2023-01-29T08:50:38.274Z,2.61
2023-01-29T08:53:08.059Z,2.60
2023-01-29T08:55:40.291Z,1.96
2023-01-29T08:58:11.032Z,2.33
2023-01-29T09:00:39.077Z,2.78
2023-01-29T09:03:08.040Z,2.57
2023-01-29T09:05:37.622Z,2.60
2023-01-29T09:08:06.468Z,2.69
2023-01-29T09:10:34.703Z,2.52
2023-01-29T09:13:03.263Z,2.55
2023-01-29T09:15:31.306Z,2.71
2023-01-29T09:18:03.867Z,3.05
2023-01-29T09:20:32.823Z,2.58
2023-01-29T09:23:08.554Z,2.30
2023-01-29T09:25:37.666Z,2.54
2023-01-29T09:28:08.639Z,3.04
2023-01-29T09:30:38.222Z,3.07
2023-01-29T09:33:07.290Z,2.89
2023-01-29T09:35:35.122Z,3.50
2023-01-29T09:38:03.121Z,2.44
2023-01-29T09:40:41.558Z,2.76
2023-01-29T09:43:24.483Z,2.44
2023-01-29T09:46:13.441Z,2.32
2023-01-29T09:48:42.109Z,2.72
2023-01-29T09:51:24.275Z,2.29
2023-01-29T09:54:05.162Z,3.08
2023-01-29T09:56:32.822Z,2.90
2023-01-29T09:59:01.990Z,3.02
2023-01-29T10:01:52.024Z,3.42
2023-01-29T10:04:31.192Z,3.45
2023-01-29T10:07:04.560Z,3.74
2023-01-29T10:10:04.799Z,3.89
2023-01-29T10:12:56.394Z,3.91
2023-01-29T10:15:39.463Z,3.90
2023-01-29T10:18:34.347Z,3.92
2023-01-29T10:21:05.357Z,3.49
2023-01-29T10:23:46.043Z,3.71
2023-01-29T10:26:14.247Z,3.28
2023-01-29T10:28:48.459Z,3.23
2023-01-29T10:31:20.793Z,3.40
2023-01-29T10:34:03.444Z,3.39
2023-01-29T10:36:37.195Z,3.33
2023-01-29T10:39:04.809Z,3.30
2023-01-29T10:42:06.778Z,2.85
2023-01-29T10:44:49.527Z,2.58
2023-01-29T10:47:33.125Z,3.15
2023-01-29T10:50:19.259Z,2.81
2023-01-29T10:53:08.586Z,2.92
2023-01-29T10:55:59.370Z,2.97
2023-01-29T10:58:52.257Z,3.47
2023-01-29T11:01:20.164Z,3.38
2023-01-29T11:03:58.192Z,3.05
2023-01-29T11:06:30.024Z,3.28
2023-01-29T11:09:36.460Z,2.80
2023-01-29T11:12:09.815Z,3.10
2023-01-29T11:14:53.713Z,3.40
2023-01-29T11:17:26.001Z,3.33
2023-01-29T11:19:55.962Z,3.33
2023-01-29T11:22:26.259Z,3.35
2023-01-29T11:25:25.411Z,3.38
2023-01-29T11:27:56.348Z,3.26
2023-01-29T11:30:34.554Z,3.36
2023-01-29T11:33:05.328Z,3.14
2023-01-29T11:35:33.523Z,3.40
2023-01-29T11:38:16.260Z,3.47
2023-01-29T11:40:44.942Z,2.99
2023-01-29T11:43:27.745Z,2.64
2023-01-29T11:46:00.470Z,3.18
2023-01-29T11:48:45.684Z,3.37
2023-01-29T11:51:26.548Z,3.56
2023-01-29T11:53:58.622Z,3.42
2023-01-29T11:56:42.582Z,2.94
2023-01-29T11:59:42.846Z,3.66
2023-01-29T12:02:30.804Z,3.74
2023-01-29T12:05:20.181Z,3.92
2023-01-29T12:07:51.629Z,3.78
2023-01-29T12:10:39.089Z,3.97
2023-01-29T12:13:23.035Z,3.93
2023-01-29T12:16:18.138Z,4.17
2023-01-29T12:18:53.293Z,3.95
2023-01-29T12:21:34.966Z,3.96
2023-01-29T12:24:27.177Z,4.08
2023-01-29T12:27:15.044Z,3.91
2023-01-29T12:29:56.687Z,4.07
2023-01-29T12:32:39.409Z,4.22
2023-01-29T12:35:41.564Z,4.19
2023-01-29T12:38:21.981Z,3.66
2023-01-29T12:41:05.783Z,4.31
2023-01-29T12:43:43.609Z,4.27
2023-01-29T12:46:21.591Z,3.94
2023-01-29T12:48:50.682Z,3.92
2023-01-29T12:51:26.498Z,4.14
2023-01-29T12:53:57.322Z,3.86
2023-01-29T12:56:47.656Z,4.06
2023-01-29T12:59:44.538Z,3.77
2023-01-29T13:02:21.138Z,4.13
2023-01-29T13:04:59.365Z,4.35
2023-01-29T13:07:32.578Z,4.31
2023-01-29T13:10:19.140Z,4.00
2023-01-29T13:13:01.593Z,4.61
2023-01-29T13:15:39.836Z,4.43
2023-01-29T13:18:18.782Z,4.68
2023-01-29T13:20:49.488Z,4.62
2023-01-29T13:23:28.916Z,4.66
2023-01-29T13:25:57.348Z,4.59
2023-01-29T13:28:27.183Z,4.83
2023-01-29T13:31:23.536Z,4.79
2023-01-29T13:34:13.594Z,4.73
2023-01-29T13:36:45.668Z,4.89
2023-01-29T13:39:47.762Z,4.81
2023-01-29T13:42:21.199Z,4.80
2023-01-29T13:45:02.910Z,4.83
2023-01-29T13:47:31.841Z,4.25
2023-01-29T13:50:01.754Z,4.78
2023-01-29T13:52:36.021Z,4.72
2023-01-29T13:55:08.346Z,4.72
2023-01-29T13:57:46.154Z,4.88
2023-01-29T14:00:17.125Z,4.60
2023-01-29T14:03:11.444Z,4.61
2023-01-29T14:05:40.267Z,4.61
2023-01-29T14:08:14.284Z,4.83
2023-01-29T14:10:43.611Z,4.38
2023-01-29T14:13:23.644Z,4.78
2023-01-29T14:15:57.348Z,4.77
2023-01-29T14:18:27.244Z,4.90
2023-01-29T14:21:01.421Z,4.89
2023-01-29T14:23:29.531Z,5.01
2023-01-29T14:26:00.812Z,4.77
2023-01-29T14:28:34.104Z,4.33
2023-01-29T14:31:03.695Z,4.62
2023-01-29T14:33:36.709Z,4.47
2023-01-29T14:36:09.374Z,4.77
2023-01-29T14:38:38.857Z,4.80
2023-01-29T14:41:23.182Z,4.80
2023-01-29T14:43:50.785Z,4.51
2023-01-29T14:46:34.172Z,4.36
2023-01-29T14:49:02.692Z,4.74
2023-01-29T14:51:38.350Z,4.29
2023-01-29T14:54:27.878Z,4.14
2023-01-29T14:57:00.759Z,4.21
2023-01-29T15:00:01.114Z,4.68
2023-01-29T15:02:41.242Z,4.74
2023-01-29T15:05:18.231Z,4.90
2023-01-29T15:07:55.620Z,4.91
2023-01-29T15:10:37.218Z,4.94
2023-01-29T15:13:30.428Z,4.81
2023-01-29T15:16:21.160Z,4.66
2023-01-29T15:18:55.056Z,4.43
2023-01-29T15:21:23.033Z,4.55
2023-01-29T15:24:04.553Z,4.79
2023-01-29T15:26:33.583Z,4.80
2023-01-29T15:29:04.465Z,4.81
2023-01-29T15:31:35.539Z,4.53
2023-01-29T15:34:07.719Z,4.47
2023-01-29T15:36:37.134Z,4.47
2023-01-29T15:39:27.045Z,4.79
2023-01-29T15:42:23.564Z,4.69
2023-01-29T15:44:54.577Z,4.87
2023-01-29T15:47:28.814Z,4.40
2023-01-29T15:49:58.007Z,4.01
2023-01-29T15:52:35.114Z,3.99
2023-01-29T15:55:06.422Z,4.06
2023-01-29T15:57:41.566Z,4.05
2023-01-29T16:00:26.077Z,4.10
2023-01-29T16:02:54.963Z,4.10
2023-01-29T16:05:27.964Z,4.36
2023-01-29T16:07:57.721Z,3.99
2023-01-29T16:10:31.954Z,4.15
2023-01-29T16:13:01.026Z,4.45
2023-01-29T16:15:35.826Z,4.47
2023-01-29T16:18:42.876Z,4.22
2023-01-29T16:21:23.104Z,4.39
2023-01-29T16:23:57.575Z,4.18
2023-01-29T16:26:34.354Z,4.23
2023-01-29T16:29:06.968Z,3.73
2023-01-29T16:31:36.790Z,4.30
2023-01-29T16:34:19.792Z,4.07
2023-01-29T16:36:49.472Z,3.80
2023-01-29T16:39:32.685Z,3.85
2023-01-29T16:42:10.846Z,4.01
2023-01-29T16:44:45.897Z,4.22
2023-01-29T16:47:20.782Z,4.32
2023-01-29T16:49:51.603Z,4.43
2023-01-29T16:52:22.784Z,4.27
2023-01-29T16:54:51.359Z,4.07
2023-01-29T16:57:29.099Z,3.55
2023-01-29T17:00:00.344Z,3.86
2023-01-29T17:02:33.404Z,3.91
2023-01-29T17:05:07.881Z,3.87
2023-01-29T17:07:37.181Z,3.93
2023-01-29T17:10:07.378Z,3.95
2023-01-29T17:12:38.926Z,3.96
2023-01-29T17:15:32.151Z,4.02
2023-01-29T17:18:00.553Z,4.32
2023-01-29T17:20:31.060Z,4.15
2023-01-29T17:22:59.046Z,4.12
2023-01-29T17:25:28.158Z,3.95
2023-01-29T17:28:00.814Z,3.99
2023-01-29T17:30:33.924Z,4.02
2023-01-29T17:33:05.181Z,3.78
2023-01-29T17:35:32.774Z,3.92
2023-01-29T17:38:00.698Z,3.75
2023-01-29T17:40:43.089Z,3.68
2023-01-29T17:43:11.922Z,3.69
2023-01-29T17:45:40.482Z,3.99
2023-01-29T17:48:23.617Z,3.95
2023-01-29T17:50:58.602Z,3.72
2023-01-29T17:53:30.482Z,3.53
2023-01-29T17:56:04.762Z,3.71
2023-01-29T17:58:32.467Z,3.80
2023-01-29T18:01:00.620Z,3.77
2023-01-29T18:03:28.776Z,3.79
2023-01-29T18:05:56.648Z,3.99
2023-01-29T18:08:33.768Z,4.12
2023-01-29T18:11:02.155Z,2.73
2023-01-29T18:13:30.187Z,3.23
2023-01-29T18:15:59.244Z,3.48
2023-01-29T18:18:27.408Z,3.73
2023-01-29T18:20:55.539Z,3.99
2023-01-29T18:23:23.398Z,4.04
2023-01-29T18:25:54.716Z,3.94
2023-01-29T18:28:22.717Z,3.90
2023-01-29T18:30:50.718Z,3.88
2023-01-29T18:33:18.989Z,3.76
2023-01-29T18:35:50.420Z,3.48
2023-01-29T18:38:18.615Z,3.65
2023-01-29T18:40:46.587Z,3.71
2023-01-29T18:43:15.502Z,3.91
2023-01-29T18:45:43.835Z,3.92
2023-01-29T18:48:11.874Z,3.88
2023-01-29T18:50:40.202Z,3.78
2023-01-29T18:53:08.118Z,3.53
2023-01-29T18:55:35.803Z,2.56
2023-01-29T18:58:25.513Z,3.48
2023-01-29T19:00:53.678Z,3.45
2023-01-29T19:03:21.990Z,3.67
2023-01-29T19:05:50.128Z,3.44
2023-01-29T19:08:18.910Z,3.54
2023-01-29T19:10:46.846Z,3.59
2023-01-29T19:13:15.050Z,3.68
2023-01-29T19:15:44.157Z,3.59
2023-01-29T19:18:14.674Z,3.72
2023-01-29T19:20:42.927Z,3.85
2023-01-29T19:23:12.180Z,3.66
2023-01-29T19:25:40.199Z,3.40
2023-01-29T19:28:08.973Z,3.52
2023-01-29T19:30:38.383Z,3.67
2023-01-29T19:33:06.541Z,3.37
2023-01-29T19:35:34.170Z,3.77
2023-01-29T19:38:04.101Z,3.77
2023-01-29T19:40:32.574Z,3.45
2023-01-29T19:43:00.597Z,3.33
2023-01-29T19:45:49.707Z,2.97
2023-01-29T19:48:22.113Z,3.20
2023-01-29T19:50:54.520Z,3.14
2023-01-29T19:53:23.082Z,3.35
2023-01-29T19:56:06.106Z,3.37
2023-01-29T19:58:35.167Z,3.06
2023-01-29T20:01:06.333Z,3.01
2023-01-29T20:03:34.845Z,3.10
2023-01-29T20:06:04.803Z,3.10
2023-01-29T20:08:35.629Z,3.08
2023-01-29T20:11:05.635Z,3.04
2023-01-29T20:13:34.223Z,3.39
2023-01-29T20:16:03.947Z,3.40
2023-01-29T20:18:32.464Z,3.31
2023-01-29T20:21:06.236Z,3.06
2023-01-29T20:23:38.004Z,2.89
2023-01-29T20:26:08.265Z,3.02
2023-01-29T20:28:36.607Z,3.54
2023-01-29T20:31:05.913Z,3.52
2023-01-29T20:33:35.703Z,3.48
2023-01-29T20:36:07.268Z,3.71
2023-01-29T20:38:35.977Z,3.23
2023-01-29T20:41:05.298Z,3.31
2023-01-29T20:43:33.991Z,3.24
2023-01-29T20:46:04.011Z,3.04
2023-01-29T20:48:33.631Z,3.16
2023-01-29T20:51:10.355Z,3.34
2023-01-29T20:53:41.093Z,3.19
2023-01-29T20:56:09.942Z,3.22
2023-01-29T20:58:41.091Z,2.97
2023-01-29T21:01:15.475Z,3.27
2023-01-29T21:03:43.764Z,3.28
2023-01-29T21:06:11.885Z,3.42
2023-01-29T21:08:40.644Z,3.45
2023-01-29T21:11:09.510Z,3.56
2023-01-29T21:13:37.903Z,3.61
2023-01-29T21:16:06.186Z,3.55
2023-01-29T21:18:34.524Z,3.57
2023-01-29T21:21:03.368Z,3.58
2023-01-29T21:23:31.257Z,3.57
2023-01-29T21:26:04.536Z,3.87
2023-01-29T21:28:33.452Z,3.57
2023-01-29T21:31:10.311Z,3.71
2023-01-29T21:33:38.605Z,3.93
2023-01-29T21:36:07.469Z,3.78
2023-01-29T21:38:37.034Z,3.49
2023-01-29T21:41:08.807Z,3.49
2023-01-29T21:43:37.444Z,3.51
2023-01-29T21:46:13.902Z,3.78
2023-01-29T21:48:42.330Z,3.66
2023-01-29T21:51:10.227Z,3.71
2023-01-29T21:53:38.062Z,3.49
2023-01-29T21:56:06.293Z,3.82
2023-01-29T21:58:34.075Z,4.00
2023-01-29T22:01:18.480Z,3.93
2023-01-29T22:03:49.698Z,3.69
2023-01-29T22:06:17.280Z,3.77
2023-01-29T22:08:44.842Z,3.76
2023-01-29T22:11:13.069Z,3.93
2023-01-29T22:13:40.741Z,3.67
2023-01-29T22:16:08.481Z,3.84
2023-01-29T22:18:36.501Z,4.08
2023-01-29T22:21:04.241Z,3.86
2023-01-29T22:23:34.832Z,3.85
2023-01-29T22:26:04.474Z,3.88
2023-01-29T22:28:32.153Z,4.05
2023-01-29T22:31:02.184Z,3.94
2023-01-29T22:33:30.490Z,3.56
2023-01-29T22:35:58.098Z,3.90
2023-01-29T22:38:26.229Z,3.72
2023-01-29T22:40:55.384Z,3.77
2023-01-29T22:43:25.983Z,3.76
2023-01-29T22:45:53.841Z,3.84
2023-01-29T22:48:22.850Z,3.98
2023-01-29T22:51:11.065Z,3.92
2023-01-29T22:53:43.289Z,4.01
2023-01-29T22:56:11.711Z,4.06
2023-01-29T22:58:41.146Z,4.07
2023-01-29T23:01:09.782Z,4.07
2023-01-29T23:03:37.355Z,4.18
2023-01-29T23:06:05.273Z,4.03
2023-01-29T23:08:33.713Z,3.87
2023-01-29T23:11:14.223Z,4.08
2023-01-29T23:13:44.696Z,4.07
2023-01-29T23:16:14.069Z,3.96
2023-01-29T23:18:42.724Z,3.84
2023-01-29T23:21:11.307Z,4.17
2023-01-29T23:23:39.436Z,4.01
2023-01-29T23:26:26.575Z,4.16
2023-01-29T23:28:54.217Z,4.08
2023-01-29T23:31:22.522Z,4.06
2023-01-29T23:33:50.572Z,4.07
2023-01-29T23:36:18.180Z,3.99
2023-01-29T23:38:46.248Z,3.83
2023-01-29T23:41:13.902Z,4.05
2023-01-29T23:43:41.639Z,3.93
2023-01-29T23:46:09.645Z,3.57
2023-01-29T23:48:37.295Z,3.51
2023-01-29T23:51:04.998Z,3.44
2023-01-29T23:53:32.888Z,3.63
2023-01-29T23:56:02.839Z,3.62
2023-01-29T23:58:32.694Z,3.35
